Aviation Digital Data Service (ADDS)

Output produced by METARs form (0354 UTC 18 October 2017)
found at http://www.aviationweather.gov/adds/metars/
 
KHKS 180253Z AUTO 07003KT 10SM CLR 16/11 A3022 RMK AO2 SLP226 T01560106 53013
KHKS 180153Z 09003KT 10SM CLR 16/11 A3020 RMK AO2 SLP222 T01560111
KHKS 180053Z 08004KT 10SM CLR 17/12 A3019 RMK AO2 SLP218 T01670122
KHKS 172353Z 06003KT 10SM CLR 18/12 A3018 RMK AO2 SLP214 T01830122 10244 20183 55002
KHKS 172253Z VRB04KT 10SM CLR 23/11 A3017 RMK AO2 SLP210 T02280111
KHKS 172153Z 07005KT 10SM CLR 24/11 A3018 RMK AO2 SLP212 T02390111
KHKS 172053Z VRB05KT 10SM CLR 24/12 A3019 RMK AO2 SLP215 T02390122 56019
KHKS 171953Z 08008KT 10SM CLR 23/12 A3020 RMK AO2 SLP220 T02330122
KHKS 171853Z 08003KT 10SM CLR 22/12 A3022 RMK AO2 SLP225 T02220117
KHKS 171753Z 00000KT 10SM CLR 21/12 A3024 RMK AO2 SLP235 T02110122 10222 20094 58017
KHKS 171653Z 05007KT 10SM CLR 20/11 A3027 RMK AO2 SLP243 T02000111
KHKS 171553Z VRB04KT 10SM CLR 17/10 A3028 RMK AO2 SLP248 T01720100
KHKS 171453Z 09006KT 10SM CLR 16/09 A3029 RMK AO2 SLP253 T01610089 53010
KHKS 171353Z 07007KT 10SM CLR 14/08 A3028 RMK AO2 SLP247 T01390083
KHKS 171253Z 07004KT 10SM CLR 10/08 A3027 RMK AO2 SLP243 T01000078 $
KHKS 171153Z VRB03KT 10SM CLR 09/07 A3026 RMK AO2 SLP242 T00940072 10128 20094 53014
KHKS 171053Z AUTO 01003KT 10SM CLR 10/08 A3025 RMK AO2 SLP237 T01000078
KHKS 170953Z AUTO 03005KT 10SM CLR 11/07 A3023 RMK AO2 SLP230 T01060072
KHKS 170853Z AUTO 02006KT 10SM CLR 11/07 A3022 RMK AO2 SLP227 T01110072 58007
KHKS 170753Z AUTO 03005KT 10SM CLR 12/07 A3023 RMK AO2 SLP231 T01170072
KHKS 170653Z AUTO 05006KT 10SM CLR 12/07 A3024 RMK AO2 SLP233 T01220072
KHKS 170553Z AUTO 04005KT 10SM CLR 13/07 A3024 RMK AO2 SLP234 T01280072 10178 20128 402280122 58003
KHKS 170453Z AUTO VRB04KT 10SM CLR 14/07 A3025 RMK AO2 SLP236 T01390072
KHKS 170353Z AUTO 03004KT 10SM CLR 14/07 A3026 RMK AO2 SLP239 T01440072
KHKS 170253Z AUTO 36003KT 10SM CLR 14/07 A3025 RMK AO2 SLP238 T01390072 51016
KHKS 170153Z 01005KT 10SM CLR 15/07 A3024 RMK AO2 SLPNO T01500072
KHKS 170053Z 36004KT 10SM CLR 16/07 A3023 RMK AO2 SLP231 T01610072
KHKS 162353Z 35004KT 10SM CLR 18/07 A3020 RMK AO2 SLP222 T01780067 10228 20178 53012
KHKS 162253Z VRB05KT 10SM CLR 20/06 A3019 RMK AO2 SLP215 T02000061
KHKS 162153Z 35009KT 310V020 10SM CLR 22/07 A3017 RMK AO2 SLP211 T02220067
KHKS 162053Z 34009G16KT 320V030 10SM CLR 22/06 A3017 RMK AO2 SLP209 T02220056 56027
KHKS 161953Z 01008G17KT 10SM CLR 22/06 A3019 RMK AO2 SLP216 T02220056
KHKS 161853Z VRB05G17KT 10SM CLR 22/06 A3021 RMK AO2 SLP223 T02170056
KHKS 161753Z 34009G16KT 10SM CLR 21/06 A3025 RMK AO2 SLP236 T02060061 58016
KHKS 161653Z 36010G15KT 10SM CLR 19/07 A3028 RMK AO2 SLP248 T01890067
KHKS 161553Z 36008KT 340V040 10SM CLR 17/08 A3029 RMK AO2 SLP251 T01720078 $
KHKS 161453Z 02010G17KT 340V050 10SM 15/08 A3029 RMK AO2 SLP252 T01500078 51015 $
KHKS 161353Z A3028 RMK AO2 SLPNO $
KHKS 161253Z 10SM 12/09 A3027 RMK AO2 SLP242 T01220089 $
KHKS 161153Z 03007G16KT 10SM CLR 12/09 A3025 RMK AO2 SLP237 T01220089 10167 20122 53021 $
KHKS 161053Z AUTO 02008G14KT 350V050 10SM CLR 13/09 A3023 RMK AO2 SLP229 T01280089 $
KHKS 160953Z AUTO 02009G14KT 340V050 10SM CLR 14/09 A3020 RMK AO2 SLP220 T01390094 $
KHKS 160853Z AUTO 03008G16KT 10SM CLR 14/10 A3019 RMK AO2 SLP214 T01440100 58004 $
KHKS 160753Z AUTO 01010G15KT 10SM SCT100 SCT120 16/11 A3019 RMK AO2 SLP217 T01560106 $
KHKS 160653Z AUTO 36007G22KT 10SM FEW060 FEW070 BKN110 16/12 A3020 RMK AO2 SLP217 T01610117 $
KHKS 160553Z AUTO 01007G14KT 10SM OVC047 17/13 A3020 RMK AO2 SLP218 60000 T01670133 10250 20167 403220167 51011 $
KHKS 160534Z AUTO 36008G16KT 10SM FEW018 OVC045 17/14 A3019 RMK AO2 T01670139 $
KHKS 160519Z AUTO VRB05KT 10SM BKN016 BKN022 OVC043 17/14 A3020 RMK AO2 T01670144 $
KHKS 160453Z AUTO 01011G16KT 10SM OVC011 17/15 A3020 RMK AO2 SLP218 T01720150 $
KHKS 160353Z AUTO 35009G18KT 10SM OVC010 18/16 A3018 RMK AO2 RAB15E31 SLP213 P0000 T01780161 $
KHKS 160328Z AUTO 35008G19KT 10SM -RA BKN014 BKN018 OVC033 18/17 A3018 RMK AO2 RAB15 P0000 T01830167 $
KHKS 160318Z AUTO 34009G16KT 310V020 10SM -RA BKN016 OVC033 19/17 A3018 RMK AO2 RAB15 P0000 T01890167 $
KHKS 160253Z AUTO 35013G19KT 320V020 10SM FEW018 OVC034 19/17 A3017 RMK AO2 SLP207 T01940167 51034 $
KHKS 160153Z AUTO 34007KT 10SM FEW033 FEW049 BKN070 21/17 A3014 RMK AO2 LTG DSNT NW SLP197 T02110172 $
KHKS 160053Z 34007G16KT 310V010 10SM BKN080 22/18 A3012 RMK AO2 SLP190 T02220183 $
KHKS 152353Z 34011G18KT 290V010 10SM FEW060 SCT080 25/21 A3007 RMK AO2 SLP173 T02500206 10322 20250 53015 $
KHKS 152253Z 32007KT 10SM CLR 29/21 A3003 RMK AO2 SLP160 T02890211 $
KHKS 152153Z 30006KT 10SM FEW048 31/21 A3001 RMK AO2 LTG DSNT SE SLP152 T03110206 $
KHKS 152053Z VRB05KT 10SM CLR 32/20 A3002 RMK AO2 SLP158 T03170200 56022 $
KHKS 151953Z 00000KT 10SM FEW055 31/20 A3003 RMK AO2 SLP161 T03110200 $
KHKS 151853Z 33006KT 10SM CLR 32/21 A3005 RMK AO2 SLP166 T03170206 $
KHKS 151753Z 00000KT 10SM CLR 30/22 A3009 RMK AO2 SLP180 T03000217 10311 20200 58016 $
KHKS 151653Z 28004KT 10SM FEW028 29/22 A3012 RMK AO2 SLP189 T02940217 $
KHKS 151628Z VRB03KT 10SM FEW020 29/23 A3012 RMK AO2 T02890228 $
KHKS 151553Z 26008KT 10SM BKN018 BKN025 BKN031 28/23 A3013 RMK AO2 SLP195 T02780233 $
KHKS 151453Z VRB05KT 10SM SCT011 BKN019 OVC029 26/24 A3014 RMK AO2 SLP196 T02610239 51017 $
KHKS 151436Z VRB03KT 10SM BKN018 25/23 A3013 RMK AO2 T02500233 $
KHKS 151353Z 00000KT 10SM FEW008 BKN040 23/22 A3013 RMK AO2 SLP194 T02330222 $
KHKS 151319Z 00000KT 9SM SCT007 BKN043 22/21 A3012 RMK AO2 T02170211 $
KHKS 151253Z 00000KT 7SM OVC007 21/21 A3011 RMK AO2 SLP187 T02060206 $
KHKS 151229Z 00000KT 7SM BKN008 20/20 A3009 RMK AO2 T02000200 $
KHKS 151221Z 00000KT 6SM BR SCT008 20/20 A3009 RMK AO2 T02000200 $
KHKS 151153Z 00000KT 8SM FEW015 21/21 A3008 RMK AO2 SLP179 T02060206 10217 20200 53012 $
KHKS 151053Z 13003KT 9SM CLR 20/20 A3007 RMK AO2 SLP174 T02000200 $
KHKS 150953Z 13003KT 10SM CLR 21/21 A3006 RMK AO2 SLP169 T02060206
KHKS 150853Z 14004KT 10SM CLR 21/21 A3005 RMK AO2 SLP166 T02060206 56010
KHKS 150753Z 12003KT 10SM CLR 21/21 A3006 RMK AO2 SLP169 T02110206
KHKS 150653Z 16004KT 10SM CLR 21/21 A3007 RMK AO2 SLP172 T02110206
KHKS 150553Z 16003KT 10SM CLR 22/20 A3008 RMK AO2 SLP176 T02170200 10272 20217 403220189 58004
KHKS 150453Z 15004KT 10SM CLR 22/20 A3009 RMK AO2 SLP179 T02170200